NCAR-RAP Real-Time Weather Data

Output produced by METARs form (17 December 2018  08:39 UTC)
found at http://weather.rap.ucar.edu/surface/
 
KDCA 170752Z 28004KT 10SM SCT037 07/03 A2991 RMK AO2 SLP129 T00670028
KDCA 170652Z 28008KT 10SM OVC036 08/03 A2991 RMK AO2 SLP128 T00780033
KDCA 170552Z 29005KT 10SM OVC032 07/03 A2991 RMK AO2 SLP127 T00720028 10072 20061 58005
KDCA 170452Z 32004KT 10SM OVC033 07/03 A2992 RMK AO2 SLP130 T00670028 401000061
KDCA 170352Z 32007KT 10SM FEW025 BKN038 06/02 A2993 RMK AO2 SLP135 T00610022
KDCA 170252Z VRB04KT 10SM FEW020 OVC041 07/03 A2992 RMK AO2 SLP133 T00670028 51002
KDCA 170152Z 31007KT 10SM SCT020 OVC043 06/03 A2993 RMK AO2 SLP133 T00610028
KDCA 170130Z 34009KT 10SM SCT020 OVC043 07/03 A2992 RMK AO2 T00670028
KDCA 170121Z 34008KT 10SM BKN019 OVC043 07/03 A2993 RMK AO2 T00670028
KDCA 170103Z 35010KT 10SM SCT018 SCT026 OVC042 06/03 A2993 RMK AO2 T00610028
KDCA 170052Z 34013KT 10SM BKN017 BKN026 OVC042 07/03 A2992 RMK AO2 SLP132 T00670028
KDCA 162352Z 32011KT 10SM SCT017 OVC028 07/03 A2992 RMK AO2 SLP131 60003 T00670033 10078 20067 53011
KDCA 162332Z 32013KT 10SM SCT015 BKN028 OVC039 07/03 A2991 RMK AO2 T00670033
KDCA 162313Z 31011KT 10SM SCT016 SCT027 OVC038 07/03 A2990 RMK AO2 T00670033
KDCA 162252Z 33011KT 10SM SCT016 BKN025 OVC038 07/03 A2990 RMK AO2 SLP123 T00670033
KDCA 162250Z 34011KT 10SM SCT016 BKN025 OVC038 07/03 A2990 RMK AO2
KDCA 162211Z 32011KT 10SM BKN014 BKN019 OVC025 07/04 A2989 RMK AO2 T00670039
KDCA 162152Z 33010KT 10SM OVC015 07/04 A2988 RMK AO2 SLP119 T00670039
KDCA 162131Z 33013KT 10SM OVC016 07/04 A2988 RMK AO2 T00670039
KDCA 162052Z 33010KT 10SM OVC014 07/04 A2987 RMK AO2 SLP114 60003 T00720044 53014
KDCA 161952Z 34011KT 10SM SCT010 BKN014 OVC023 07/05 A2985 RMK AO2 RAE1859 SLP106 P0000 T00720050
KDCA 161935Z 32013KT 10SM BKN014 OVC023 08/05 A2984 RMK AO2 RAE1859 P0000 T00780050
KDCA 161852Z 35013KT 10SM -RA BKN015 OVC021 08/06 A2983 RMK AO2 SLP100 P0003 T00780056
KDCA 161836Z 34012KT 10SM -RA SCT013 OVC018 08/06 A2982 RMK AO2 P0002 T00780056
KDCA 161752Z 34012KT 8SM RA OVC013 07/05 A2983 RMK AO2 SLP100 P0009 60044 T00720050 10083 20072 57020
KDCA 161652Z 35010KT 7SM RA BKN012 OVC015 07/06 A2984 RMK AO2 SLP105 P0014 T00720056
KDCA 161606Z 35010KT 4SM RA BR BKN011 OVC014 08/06 A2986 RMK AO2 P0004 T00780056
KDCA 161552Z 36011KT 4SM +RA BR BKN009 OVC013 08/06 A2987 RMK AO2 DZE1454RAB1454 SLP114 P0017 T00780056
KDCA 161545Z 36013KT 4SM +RA BR BKN009 OVC014 08/06 A2987 RMK AO2 DZE1454RAB1454 P0014 T00780061
KDCA 161531Z 36010KT 4SM RA BR OVC006 08/06 A2987 RMK AO2 DZE1454RAB1454 P0010 T00780056
KDCA 161520Z 02012KT 2 1/2SM R01/6000VP6000FT +RA BR OVC006 08/06 A2988 RMK AO2 DZE1454RAB1454 P0007 T00780056
KDCA 161452Z 01012KT 3SM -DZ BR OVC006 08/06 A2989 RMK AO2 SLP119 P0002 60004 T00780061 50002
KDCA 161406Z 01011KT 4SM -DZ BR OVC006 08/06 A2989 RMK AO2 P0001 T00780061
KDCA 161352Z 01013KT 2 1/2SM -DZ BR OVC007 08/06 A2989 RMK AO2 SLP120 P0001 T00780061
KDCA 161333Z 01009KT 2SM -DZ BR OVC007 08/07 A2989 RMK AO2 P0001 T00780067
KDCA 161252Z 01011KT 1 1/2SM -DZ BR OVC006 08/07 A2988 RMK AO2 SLP118 P0001 T00830067
KDCA 161236Z 36010KT 1 3/4SM -DZ BR OVC006 08/07 A2988 RMK AO2 P0001 T00830067
KDCA 161152Z 02010KT 2SM -DZ BR BKN006 OVC010 08/07 A2988 RMK AO2 SLP118 P0002 60006 70238 T00830067 10100 20083 53001
KDCA 161136Z 02009KT 2SM -DZ BR BKN006 OVC012 08/07 A2988 RMK AO2 P0002 T00830067
KDCA 161127Z 02009KT 2 1/2SM -DZ BR BKN009 OVC012 08/07 A2988 RMK AO2 P0001 T00830067
KDCA 161052Z 02007KT 2 1/2SM -DZ BR OVC007 09/07 A2988 RMK AO2 SLP116 P0000 T00890067
KDCA 161027Z 04011G18KT 3SM -DZ BR OVC008 09/07 A2987 RMK AO2 P0000 T00890072
KDCA 161012Z 04013KT 3SM -DZ BR OVC006 09/07 A2987 RMK AO2 P0000 T00890072
KDCA 160952Z 04012KT 4SM -DZ BR OVC008 09/08 A2987 RMK AO2 SLP115 P0001 T00940078
KDCA 160938Z 04012KT 4SM -DZ BR OVC008 09/08 A2987 RMK AO2 P0001 T00940078
KDCA 160852Z 03009KT 3SM -DZ BR OVC006 10/08 A2988 RMK AO2 SLP117 P0001 60003 T01000083 58005
KDCA 160813Z 03011KT 3SM -DZ BR OVC006 10/08 A2989 RMK AO2 P0001 T01000083
KDCA 160759Z 02009KT 2 1/2SM -DZ BR OVC006 10/08 A2989 RMK AO2 P0000 T01000083
KDCA 160752Z 03010KT 3SM -DZ BR OVC006 10/08 A2989 RMK AO2 RAE22DZB22 SLP121 P0000 T01000083
KDCA 160652Z 03009KT 5SM -RA BR OVC007 10/08 A2989 RMK AO2 SLP120 P0002 T01000083
KDCA 160631Z 02012KT 7SM -RA OVC007 10/08 A2988 RMK AO2 P0001 T01000083
KDCA 160615Z 03012KT 7SM -RA OVC008 10/08 A2989 RMK AO2 P0001 T01000083
KDCA 160555Z 01011KT 3SM RA BR BKN006 BKN011 OVC020 10/08 A2989 RMK AO2 P0001 T01000083
KDCA 160552Z 01011KT 2 1/2SM RA BR BKN006 OVC020 10/08 A2989 RMK AO2 SLP122 P0008 60090 T01000083 10117 20100 56013
KDCA 160505Z 36008KT 2 1/2SM -RA BR OVC006 10/09 A2990 RMK AO2 P0002 T01000089
KDCA 160452Z 02010KT 3SM -RA BR BKN006 OVC011 10/09 A2990 RMK AO2 SLP124 P0008 T01000089 401280089
KDCA 160424Z 02011KT 3SM RA BR BKN006 OVC011 10/09 A2991 RMK AO2 P0005 T01000089
KDCA 160352Z COR 01011KT 4SM -RA BR BKN006 OVC016 11/09 A2992 RMK AO2 SLP131 P0031 T01060089
KDCA 160348Z 01011KT 4SM -RA BR BKN006 OVC016 11/09 A2992 RMK AO2 SLP131 P0031 T01060089
KDCA 160347Z 01010KT 4SM -RA BR BKN006 OVC016 11/09 A2992 RMK AO2 P0031
KDCA 160334Z 01009KT 2SM R01/6000FT +RA BR BKN006 OVC018 11/09 A2992 RMK AO2 P0028 T01060089
KDCA 160328Z 01009KT 1 3/4SM R01/6000FT +RA BR SCT006 OVC018 11/09 A2992 RMK AO2 P0022 T01060089
KDCA 160324Z 02011KT 2SM +RA BR SCT006 SCT014 OVC018 11/09 A2992 RMK AO2 P0018 T01060089
KDCA 160321Z 01009KT 2 1/2SM +RA BR SCT006 BKN013 OVC018 11/09 A2992 RMK AO2 P0015 T01060089
KDCA 160316Z 01009KT 3SM +RA BR BKN006 OVC016 11/09 A2993 RMK AO2 P0013 T01060094
KDCA 160313Z 01009KT 3SM +RA BR SCT007 OVC016 11/09 A2993 RMK AO2 P0012 T01060094
KDCA 160256Z 03010KT 2 1/2SM +RA BR SCT007 OVC014 11/09 A2994 RMK AO2 P0002 T01060094
KDCA 160252Z 02010KT 3SM +RA BR BKN006 OVC014 11/09 A2993 RMK AO2 SLP135 P0019 60043 T01060094 58013
KDCA 160211Z 03007KT 3SM +RA BR BKN006 OVC013 11/10 A2994 RMK AO2 P0004 T01110100
KDCA 160200Z 04007KT 3SM RA BR SCT007 BKN011 OVC016 11/10 A2994 RMK AO2 P0001 T01110100
KDCA 160157Z 04007KT 3SM RA BR SCT007 OVC016 11/09 A2994 RMK AO2 P0000 T01110094
KDCA 160154Z 04007KT 3SM -RA BR SCT007 BKN011 OVC018 11/10 A2994 RMK AO2 P0000 T01110100
KDCA 160152Z 04008KT 3SM RA BR SCT007 SCT013 OVC018 11/10 A2995 RMK AO2 SLP140 P0016 T01110100
KDCA 160145Z 04008KT 3SM -RA BR FEW007 SCT013 OVC018 11/09 A2994 RMK AO2 P0015 T01110094
KDCA 160138Z 03008KT 2 1/2SM +RA BR SCT007 OVC015 11/10 A2995 RMK AO2 P0013 T01110100
KDCA 160134Z 03008KT 2 1/2SM RA BR SCT006 OVC013 11/10 A2995 RMK AO2 P0011 T01110100
KDCA 160055Z 04009KT 2 1/2SM RA BR BKN008 OVC014 12/10 A2996 RMK AO2 P0001 T01170100
KDCA 160052Z 04009KT 3SM RA BR OVC008 11/10 A2996 RMK AO2 SLP146 P0008 T01110100
KDCA 160042Z 04010KT 3SM RA BR BKN008 OVC012 12/10 A2997 RMK AO2 P0006 T01170100
KDCA 160033Z 03008KT 3SM -RA BR OVC010 12/10 A2997 RMK AO2 P0005 T01170100
KDCA 160010Z 04014KT 3SM -RA BR BKN008 OVC013 12/10 A2997 RMK AO2 P0001 T01170100
KDCA 152352Z 03008KT 4SM RA BR BKN006 OVC011 12/10 A2997 RMK AO2 SLP149 P0012 60068 T01170100 10122 20111 55002
KDCA 151352Z 01008KT 2 1/2SM RA BR OVC006 12/10 A3003 RMK AO2 SLP170 P0006 T01170100
KDCA 151326Z 03010KT 2 1/2SM RA BR OVC007 11/09 A3003 RMK AO2 P0001 T01110094
KDCA 151310Z 03010KT 6SM -RA BR BKN007 BKN024 OVC034 11/09 A3003 RMK AO2 P0000 T01110094
KDCA 151252Z 04012KT 6SM -RA BR FEW009 BKN025 OVC033 11/09 A3004 RMK AO2 SLP171 P0003 T01060094
KDCA 151152Z 05013KT 5SM -RA BR FEW006 BKN026 OVC037 10/08 A3004 RMK AO2 SLP173 P0010 60029 70059 T01000083 10106 20094 56016
KDCA 151137Z 04012KT 4SM -RA BR SCT006 OVC038 10/09 A3005 RMK AO2 P0009 T01000089
KDCA 151121Z 04010KT 4SM +RA BR BKN006 BKN027 OVC042 11/09 A3005 RMK AO2 P0005 T01060089
KDCA 151118Z 04013KT 4SM +RA BR SCT006 BKN034 OVC042 11/09 A3005 RMK AO2 P0004 T01060089
KDCA 151052Z 04009KT 6SM -RA BR BKN006 BKN021 OVC035 10/09 A3005 RMK AO2 SLP177 P0006 T01000089
KDCA 151022Z 04010KT 4SM -RA BR SCT005 BKN015 OVC026 10/09 A3006 RMK AO2 P0003 T01000089
KDCA 150952Z 03010KT 3SM RA BR OVC005 10/09 A3008 RMK AO2 SLP184 P0004 T01000089
KDCA 150905Z 03009KT 5SM -RA BR OVC005 10/08 A3009 RMK AO2 P0001 T01000083
KDCA 150852Z 03009KT 3SM -RA BR OVC004 10/08 A3009 RMK AO2 DZE02RAB02 SLP189 P0007 60009 T01000083 56016
KDCA 150844Z 03006KT 2 1/2SM RA BR OVC005 10/09 A3010 RMK AO2 DZE02RAB02 P0006 T01000089
KDCA 150756Z 02009KT 2 1/2SM -DZ BR OVC004 10/08 A3012 RMK AO2 P0000 T01000083
KDCA 150752Z 02011KT 3SM -DZ BR OVC004 10/08 A3012 RMK AO2 DZE0654B29 SLP200 P0000 T01000083
KDCA 150652Z 02008KT 3SM -DZ BR OVC004 09/08 A3014 RMK AO2 DZE09B46RAB18E43 SLP205 P0002 T00940078
KDCA 150647Z 03008KT 3SM -DZ BR OVC004 09/08 A3014 RMK AO2 DZE09B46RAB18E43 P0002
KDCA 150626Z 04009KT 2SM RA BR OVC004 09/08 A3014 RMK AO2 DZE09RAB18 P0001 T00940078
KDCA 150552Z 02009KT 3SM -DZ BR OVC004 09/08 A3015 RMK AO2 RAE31DZB35 SLP209 P0002 60022 T00940078 10094 20083 58029
KDCA 150535Z 02008KT 3SM -DZ BR OVC005 09/08 A3016 RMK AO2 RAE31DZB35 P0002 T00890078
KDCA 150522Z 03009KT 2 1/2SM -RA BR OVC004 09/07 A3017 RMK AO2 P0002 T00890072
KDCA 150454Z 01008KT 2 1/2SM -RA BR OVC005 09/07 A3019 RMK AO2 P0000 T00890072
KDCA 150452Z 02009KT 3SM -RA BR OVC005 09/07 A3019 RMK AO2 RAB37 SLP221 P0000 T00890072 400940028
KDCA 150352Z 02007KT 6SM BR OVC006 09/07 A3021 RMK AO2 RAE16DZB48E51 SLP229 P0001 T00890072
KDCA 150302Z 02006KT 6SM -RA BR OVC007 09/07 A3024 RMK AO2 P0001 T00890067
KDCA 150252Z 02008KT 6SM -RA BR BKN008 OVC024 09/07 A3024 RMK AO2 SLP238 P0003 60019 T00890067 58021
KDCA 150244Z 02008KT 7SM -RA BKN008 OVC024 09/07 A3024 RMK AO2 P0003 T00890067
KDCA 150239Z 02007KT 7SM -RA BKN010 OVC024 08/07 A3024 RMK AO2 P0003 T00830067
KDCA 150152Z 03007KT 5SM -RA BR BKN023 OVC029 08/07 A3026 RMK AO2 SLP247 P0007 T00830067
KDCA 150052Z 03007KT 4SM RA BR OVC026 08/07 A3029 RMK AO2 SLP257 P0009 T00830067
KDCA 150028Z 03007KT 4SM RA BR BKN029 BKN038 OVC055 08/07 A3030 RMK AO2 P0005 T00830067
KDCA 142352Z 04007KT 4SM -RA BR SCT030 BKN043 OVC070 08/07 A3030 RMK AO2 SLP260 P0006 60008 T00830067 10094 20078 58008
KDCA 142252Z 04005KT 6SM -RA BR OVC038 08/06 A3031 RMK AO2 SLP264 P0002 T00830061
KDCA 142152Z 05005KT 8SM -RA BKN045 OVC050 08/05 A3032 RMK AO2 RAB2053E20B52 SLP266 P0000 T00830050
KDCA 142052Z 06006KT 7SM OVC090 08/04 A3032 RMK AO2 SLP268 T00830044 56012